createdAt,value
2019-04-22T00:02:07.973Z,5.00
2019-04-22T00:04:50.878Z,5.87
2019-04-22T00:07:39.191Z,6.17
2019-04-22T00:10:12.724Z,5.37
2019-04-22T00:12:42.823Z,5.43
2019-04-22T00:15:10.078Z,5.40
2019-04-22T00:17:58.844Z,5.97
2019-04-22T00:20:20.281Z,5.60
2019-04-22T00:22:47.959Z,4.80
2019-04-22T00:25:19.338Z,5.90
2019-04-22T00:27:47.690Z,4.90
2019-04-22T00:30:30.978Z,5.13
2019-04-22T00:33:07.908Z,5.50
2019-04-22T00:35:49.375Z,5.30
2019-04-22T00:38:28.422Z,5.37
2019-04-22T00:40:56.475Z,4.27
2019-04-22T00:43:24.298Z,5.27
2019-04-22T00:45:57.827Z,4.50
2019-04-22T00:48:27.354Z,4.87
2019-04-22T00:51:17.555Z,5.77
2019-04-22T00:53:41.631Z,4.70
2019-04-22T00:56:18.702Z,4.90
2019-04-22T00:58:48.491Z,5.00
2019-04-22T01:03:51.056Z,4.67
2019-04-22T01:08:53.732Z,5.00
2019-04-22T01:11:23.063Z,4.53
2019-04-22T01:13:53.306Z,4.63
2019-04-22T01:16:32.447Z,4.30
2019-04-22T01:19:07.188Z,4.63
2019-04-22T01:21:40.804Z,5.10
2019-04-22T01:24:09.129Z,4.57
2019-04-22T01:26:34.510Z,4.80
2019-04-22T01:29:10.016Z,4.70
2019-04-22T01:31:45.336Z,4.37
2019-04-22T01:34:36.364Z,5.10
2019-04-22T01:37:20.132Z,4.47
2019-04-22T01:39:59.007Z,4.87
2019-04-22T01:42:24.480Z,4.93
2019-04-22T01:44:50.806Z,4.90
2019-04-22T01:47:34.252Z,4.40
2019-04-22T01:49:59.812Z,5.20
2019-04-22T01:52:29.658Z,4.90
2019-04-22T01:55:12.355Z,4.90
2019-04-22T01:57:34.990Z,5.43
2019-04-22T01:59:56.129Z,5.30
2019-04-22T02:02:49.281Z,5.60
2019-04-22T02:05:17.668Z,4.80
2019-04-22T02:08:02.604Z,4.70
2019-04-22T02:10:29.241Z,5.43
2019-04-22T02:12:54.050Z,5.20
2019-04-22T02:15:23.993Z,5.83
2019-04-22T02:18:03.323Z,4.83
2019-04-22T02:20:31.593Z,4.80
2019-04-22T02:36:22.634Z,4.83
2019-04-22T02:41:26.366Z,5.10
2019-04-22T02:44:14.050Z,4.70
2019-04-22T02:51:32.877Z,4.77
2019-04-22T02:59:12.439Z,4.67
2019-04-22T03:01:54.168Z,4.67
2019-04-22T03:06:46.034Z,4.10
2019-04-22T03:09:55.387Z,4.30
2019-04-22T03:12:21.617Z,4.67
2019-04-22T03:22:22.789Z,3.60
2019-04-22T03:27:35.228Z,4.20
2019-04-22T03:38:04.042Z,4.13
2019-04-22T03:43:10.082Z,3.93
2019-04-22T03:45:30.191Z,4.00
2019-04-22T03:48:01.537Z,3.67
2019-04-22T03:53:29.273Z,3.87
2019-04-22T03:55:33.151Z,4.30
2019-04-22T04:03:11.951Z,4.20
2019-04-22T04:10:53.182Z,3.50
2019-04-22T04:13:28.542Z,3.60
2019-04-22T04:16:07.774Z,3.63
2019-04-22T04:19:13.700Z,4.53
2019-04-22T04:24:32.322Z,3.27
2019-04-22T04:27:04.099Z,3.80
2019-04-22T04:34:47.870Z,3.40
2019-04-22T04:39:34.595Z,3.53
2019-04-22T04:44:48.023Z,3.57
2019-04-22T04:47:11.718Z,3.00
2019-04-22T04:49:34.951Z,3.90
2019-04-22T04:52:19.285Z,3.50
2019-04-22T04:57:16.970Z,3.40
2019-04-22T05:00:28.725Z,2.80
2019-04-22T05:02:30.487Z,3.40
2019-04-22T05:05:14.461Z,3.70
2019-04-22T05:10:09.833Z,3.60
2019-04-22T05:15:11.326Z,3.17
2019-04-22T05:20:13.388Z,3.57
2019-04-22T05:22:41.210Z,3.17
2019-04-22T05:30:27.946Z,3.37
2019-04-22T05:35:26.224Z,3.20
2019-04-22T05:37:56.313Z,3.27
2019-04-22T05:43:01.421Z,4.40
2019-04-22T05:45:33.130Z,3.03
2019-04-22T05:50:29.477Z,3.47
2019-04-22T05:53:03.322Z,3.30
2019-04-22T05:55:45.299Z,3.20
2019-04-22T05:58:08.940Z,3.40
2019-04-22T06:01:04.290Z,3.40
2019-04-22T06:03:08.561Z,3.70
2019-04-22T06:06:07.799Z,3.30
2019-04-22T06:08:19.906Z,3.20
2019-04-22T06:13:18.028Z,3.10
2019-04-22T06:16:07.424Z,3.50
2019-04-22T06:18:56.434Z,3.27
2019-04-22T06:21:28.097Z,2.80
2019-04-22T06:24:06.303Z,2.97
2019-04-22T06:26:37.774Z,3.13
2019-04-22T06:29:09.341Z,3.03
2019-04-22T06:31:49.736Z,3.10
2019-04-22T06:34:10.783Z,3.30
2019-04-22T06:36:45.027Z,2.90
2019-04-22T06:39:30.849Z,2.93
2019-04-22T06:42:01.100Z,3.13
2019-04-22T06:44:29.801Z,2.90
2019-04-22T06:47:00.123Z,3.40
2019-04-22T06:49:30.025Z,3.63
2019-04-22T06:54:45.569Z,3.40
2019-04-22T06:57:06.339Z,3.53
2019-04-22T06:59:45.734Z,3.13
2019-04-22T07:02:16.923Z,3.60
2019-04-22T07:05:02.937Z,3.53
2019-04-22T07:07:31.498Z,3.60
2019-04-22T07:10:20.509Z,3.40
2019-04-22T07:12:46.922Z,3.67
2019-04-22T07:15:24.394Z,3.27
2019-04-22T07:20:36.758Z,3.57
2019-04-22T07:23:13.410Z,3.80
2019-04-22T07:25:40.809Z,3.43
2019-04-22T07:31:02.414Z,3.57
2019-04-22T07:33:32.366Z,4.00
2019-04-22T07:36:30.539Z,3.30
2019-04-22T07:38:35.944Z,4.20
2019-04-22T07:41:27.281Z,3.93
2019-04-22T07:44:01.393Z,3.80
2019-04-22T07:46:19.815Z,4.50
2019-04-22T07:49:08.338Z,4.13
2019-04-22T07:51:21.636Z,3.87
2019-04-22T07:53:48.961Z,4.30
2019-04-22T07:56:18.775Z,3.90
2019-04-22T07:58:48.981Z,3.97
2019-04-22T08:01:39.958Z,3.80
2019-04-22T08:04:16.149Z,4.10
2019-04-22T08:06:52.340Z,4.30
2019-04-22T08:09:20.952Z,4.50
2019-04-22T08:11:50.001Z,4.40
2019-04-22T08:14:26.838Z,4.50
2019-04-22T08:16:52.661Z,4.30
2019-04-22T08:19:24.949Z,3.97
2019-04-22T08:21:52.210Z,3.50
2019-04-22T08:24:22.738Z,3.60
2019-04-22T08:26:54.701Z,3.77
2019-04-22T08:29:35.471Z,3.30
2019-04-22T08:31:57.950Z,4.27
2019-04-22T08:34:31.032Z,3.80
2019-04-22T08:39:49.984Z,3.80
2019-04-22T08:42:16.252Z,3.90
2019-04-22T08:45:08.030Z,3.60
2019-04-22T08:49:50.674Z,3.60
2019-04-22T08:52:17.874Z,4.07
2019-04-22T08:54:43.720Z,3.33
2019-04-22T08:57:20.452Z,3.70
2019-04-22T08:59:53.105Z,3.33
2019-04-22T09:02:25.980Z,3.70
2019-04-22T09:05:00.364Z,3.53
2019-04-22T09:07:50.316Z,3.60
2019-04-22T09:10:18.908Z,3.43
2019-04-22T09:12:57.647Z,3.10
2019-04-22T09:15:20.468Z,3.80
2019-04-22T09:17:55.855Z,3.40
2019-04-22T09:20:23.385Z,3.97
2019-04-22T09:22:53.934Z,3.80
2019-04-22T09:25:26.900Z,4.00
2019-04-22T09:28:10.549Z,3.50
2019-04-22T09:30:34.366Z,3.60
2019-04-22T09:33:09.622Z,3.03
2019-04-22T09:35:37.532Z,2.90
2019-04-22T09:38:33.209Z,3.10
2019-04-22T09:40:43.023Z,2.60
2019-04-22T09:43:11.488Z,2.87
2019-04-22T09:45:43.651Z,2.90
2019-04-22T09:48:18.186Z,3.70
2019-04-22T09:53:15.061Z,2.97
2019-04-22T09:55:50.000Z,2.90
2019-04-22T09:58:29.574Z,3.00
2019-04-22T10:01:18.686Z,3.00
2019-04-22T10:03:45.209Z,3.03
2019-04-22T10:06:23.284Z,2.80
2019-04-22T10:09:08.458Z,3.20
2019-04-22T10:11:28.726Z,2.90
2019-04-22T10:13:53.856Z,3.83
2019-04-22T10:16:28.676Z,3.30
2019-04-22T10:18:54.037Z,3.70
2019-04-22T10:21:27.359Z,3.20
2019-04-22T10:23:53.281Z,3.00
2019-04-22T10:26:31.768Z,3.23
2019-04-22T10:29:04.627Z,3.90
2019-04-22T10:31:34.828Z,3.83
2019-04-22T10:33:49.526Z,3.20
2019-04-22T10:36:07.940Z,3.10
2019-04-22T10:38:40.220Z,3.13
2019-04-22T10:41:10.446Z,3.57
2019-04-22T10:43:41.225Z,3.87
2019-04-22T10:46:12.156Z,3.60
2019-04-22T10:48:48.692Z,4.47
2019-04-22T10:51:19.008Z,3.93
2019-04-22T10:53:49.388Z,3.73
2019-04-22T10:56:32.605Z,4.70
2019-04-22T10:59:28.912Z,4.00
2019-04-22T11:01:59.206Z,3.70
2019-04-22T11:04:30.194Z,3.67
2019-04-22T11:07:05.521Z,3.50
2019-04-22T11:09:49.329Z,4.43
2019-04-22T11:12:16.800Z,3.83
2019-04-22T11:14:43.341Z,4.43
2019-04-22T11:17:13.580Z,3.60
2019-04-22T11:19:45.743Z,3.80
2019-04-22T11:22:20.717Z,3.60
2019-04-22T11:24:46.660Z,3.90
2019-04-22T11:27:16.978Z,4.27
2019-04-22T11:29:47.719Z,4.67
2019-04-22T11:32:26.619Z,7.67
2019-04-22T11:34:56.049Z,4.10
2019-04-22T11:37:26.180Z,4.00
2019-04-22T11:40:10.478Z,4.37
2019-04-22T11:42:36.371Z,3.87
2019-04-22T11:45:09.157Z,3.90
2019-04-22T11:47:39.327Z,4.10
2019-04-22T11:50:10.456Z,4.90
2019-04-22T11:52:40.607Z,3.80
2019-04-22T11:55:17.038Z,4.17
2019-04-22T11:58:02.974Z,4.33
2019-04-22T12:00:36.782Z,3.97
2019-04-22T12:03:07.100Z,4.03
2019-04-22T12:05:39.794Z,4.30
2019-04-22T12:08:13.197Z,4.03
2019-04-22T12:10:49.211Z,4.33
2019-04-22T12:13:21.871Z,3.90
2019-04-22T12:15:51.227Z,4.20
2019-04-22T12:18:21.181Z,4.47
2019-04-22T12:21:01.311Z,4.80
2019-04-22T12:23:48.669Z,4.20
2019-04-22T12:26:22.915Z,3.77
2019-04-22T12:28:53.233Z,4.70
2019-04-22T12:31:23.661Z,3.73
2019-04-22T12:33:57.165Z,3.90
2019-04-22T12:36:26.634Z,3.40
2019-04-22T12:38:55.750Z,3.93
2019-04-22T12:41:25.837Z,3.90
2019-04-22T12:43:55.498Z,3.30
2019-04-22T12:46:28.064Z,3.70
2019-04-22T12:48:58.285Z,3.83
2019-04-22T12:51:27.327Z,3.70
2019-04-22T12:53:57.214Z,3.60
2019-04-22T12:56:29.804Z,4.27
2019-04-22T12:58:59.370Z,3.80
2019-04-22T13:01:30.791Z,3.50
2019-04-22T13:04:05.789Z,3.73
2019-04-22T13:06:30.305Z,4.20
2019-04-22T13:09:00.376Z,4.53
2019-04-22T13:11:32.783Z,3.70
2019-04-22T13:14:00.946Z,4.10
2019-04-22T13:16:31.295Z,4.10
2019-04-22T13:19:06.963Z,3.83
2019-04-22T13:21:31.258Z,3.53
2019-04-22T13:24:00.917Z,3.60
2019-04-22T13:26:29.909Z,3.70
2019-04-22T13:29:05.220Z,3.67
2019-04-22T13:31:34.936Z,3.60
2019-04-22T13:34:13.317Z,4.07
2019-04-22T13:36:41.794Z,4.00
2019-04-22T13:39:13.290Z,3.50
2019-04-22T13:41:49.734Z,4.43
2019-04-22T13:44:12.980Z,3.23
2019-04-22T13:47:04.136Z,3.90
2019-04-22T13:49:40.443Z,3.50
2019-04-22T13:52:21.059Z,3.87
2019-04-22T13:57:03.906Z,3.47
2019-04-22T13:59:23.039Z,3.30
2019-04-22T14:02:04.460Z,3.47
2019-04-22T14:04:36.841Z,3.50
2019-04-22T14:07:07.167Z,3.50
2019-04-22T14:09:38.193Z,3.40
2019-04-22T14:12:09.422Z,3.87
2019-04-22T14:14:40.730Z,3.20
2019-04-22T14:17:09.101Z,3.00
2019-04-22T14:19:39.143Z,3.10
2019-04-22T14:22:09.497Z,3.00
2019-04-22T14:24:38.717Z,2.70
2019-04-22T14:27:21.873Z,3.40
2019-04-22T14:29:39.659Z,3.33
2019-04-22T14:32:16.614Z,3.20
2019-04-22T14:34:39.234Z,3.60
2019-04-22T14:37:08.089Z,3.20
2019-04-22T14:39:38.259Z,3.50
2019-04-22T14:42:28.467Z,3.37
2019-04-22T14:47:32.692Z,3.40
2019-04-22T14:50:02.806Z,3.60
2019-04-22T14:52:36.003Z,3.00
2019-04-22T14:54:51.984Z,3.33
2019-04-22T14:57:11.101Z,3.10
2019-04-22T14:59:39.984Z,3.13
2019-04-22T15:02:09.780Z,3.10
2019-04-22T15:04:39.288Z,3.27
2019-04-22T15:07:08.885Z,3.43
2019-04-22T15:09:37.941Z,3.63
2019-04-22T15:12:17.499Z,3.90
2019-04-22T15:14:39.597Z,3.60
2019-04-22T15:17:21.151Z,3.40
2019-04-22T15:20:14.051Z,2.97
2019-04-22T15:22:44.280Z,3.53
2019-04-22T15:25:14.494Z,3.30
2019-04-22T15:27:43.585Z,3.60
2019-04-22T15:30:12.941Z,3.43
2019-04-22T15:32:43.137Z,3.27
2019-04-22T15:35:13.400Z,3.63
2019-04-22T15:37:43.374Z,2.83
2019-04-22T15:40:13.163Z,3.00
2019-04-22T15:42:43.777Z,3.10
2019-04-22T15:45:15.046Z,2.93
2019-04-22T15:47:44.047Z,3.10
2019-04-22T15:50:14.192Z,3.23
2019-04-22T15:52:47.912Z,2.83
2019-04-22T15:55:14.613Z,2.80
2019-04-22T15:57:43.945Z,2.67
2019-04-22T16:00:26.848Z,3.10
2019-04-22T16:02:43.860Z,3.00
2019-04-22T16:05:13.132Z,3.30
2019-04-22T16:07:42.282Z,3.00
2019-04-22T16:10:12.243Z,2.70
2019-04-22T16:12:52.139Z,2.73
2019-04-22T16:15:13.210Z,3.13
2019-04-22T16:17:42.539Z,2.80
2019-04-22T16:20:13.086Z,2.70
2019-04-22T16:23:01.436Z,2.67
2019-04-22T16:25:49.353Z,2.50
2019-04-22T16:28:19.513Z,2.70
2019-04-22T16:30:48.951Z,2.40
2019-04-22T16:33:19.332Z,2.20
2019-04-22T16:35:48.967Z,2.20
2019-04-22T16:38:19.181Z,2.50
2019-04-22T16:40:48.633Z,3.17
2019-04-22T16:43:17.852Z,2.37
2019-04-22T16:45:47.737Z,2.40
2019-04-22T16:48:17.745Z,1.70
2019-04-22T16:50:48.753Z,3.80
2019-04-22T16:53:18.908Z,2.43
2019-04-22T16:55:48.896Z,2.17
2019-04-22T16:58:18.918Z,3.00
2019-04-22T17:00:49.682Z,2.90
2019-04-22T17:03:36.865Z,2.67
2019-04-22T17:06:14.214Z,3.10
2019-04-22T17:08:44.386Z,2.60
2019-04-22T17:11:13.722Z,2.73
2019-04-22T17:13:44.596Z,3.20
2019-04-22T17:16:13.875Z,3.43
2019-04-22T17:18:43.621Z,3.13
2019-04-22T17:21:14.503Z,2.87
2019-04-22T17:23:43.627Z,2.57
2019-04-22T17:26:18.832Z,2.97
2019-04-22T17:28:49.220Z,2.90
2019-04-22T17:31:18.652Z,3.10
2019-04-22T17:33:48.833Z,2.60
2019-04-22T17:36:18.367Z,3.27
2019-04-22T17:38:55.087Z,2.73
2019-04-22T17:41:28.332Z,3.50
2019-04-22T17:44:12.235Z,3.43
2019-04-22T17:46:45.636Z,3.10
2019-04-22T17:49:35.552Z,3.33
2019-04-22T17:52:32.764Z,3.40
2019-04-22T17:54:49.407Z,3.10
2019-04-22T17:57:24.075Z,3.23
2019-04-22T17:59:50.557Z,3.00
2019-04-22T18:02:24.977Z,3.47
2019-04-22T18:04:49.587Z,3.10
2019-04-22T18:07:35.537Z,3.40
2019-04-22T18:10:24.256Z,3.20
2019-04-22T18:12:37.062Z,3.23
2019-04-22T18:15:07.156Z,3.20
2019-04-22T18:17:37.336Z,2.67
2019-04-22T18:20:02.592Z,2.73
2019-04-22T18:22:27.408Z,2.60
2019-04-22T18:24:56.887Z,2.90
2019-04-22T18:30:02.185Z,2.70
2019-04-22T18:32:30.166Z,3.17
2019-04-22T18:35:02.805Z,2.80
2019-04-22T18:37:41.033Z,2.80
2019-04-22T18:40:10.216Z,2.80
2019-04-22T18:42:32.755Z,3.20
2019-04-22T18:45:23.267Z,3.40
2019-04-22T18:47:38.929Z,2.80
2019-04-22T18:50:08.609Z,3.10
2019-04-22T18:52:48.738Z,2.87
2019-04-22T18:55:30.749Z,3.20
2019-04-22T18:58:06.707Z,2.67
2019-04-22T19:00:27.461Z,2.77
2019-04-22T19:03:05.328Z,2.20
2019-04-22T19:05:45.468Z,2.90
2019-04-22T19:08:23.103Z,3.10
2019-04-22T19:10:57.600Z,3.13
2019-04-22T19:13:51.271Z,2.87
2019-04-22T19:16:11.176Z,3.40
2019-04-22T19:18:32.394Z,2.87
2019-04-22T19:21:02.359Z,3.23
2019-04-22T19:23:28.108Z,3.40
2019-04-22T19:26:00.818Z,3.83
2019-04-22T19:28:34.431Z,3.57
2019-04-22T19:31:10.815Z,3.50
2019-04-22T19:33:35.248Z,3.20
2019-04-22T19:36:07.515Z,3.40
2019-04-22T19:38:21.889Z,3.73
2019-04-22T19:41:08.332Z,3.27
2019-04-22T19:43:33.096Z,3.23
2019-04-22T19:46:02.234Z,2.90
2019-04-22T19:48:39.265Z,3.37
2019-04-22T19:51:12.723Z,3.43
2019-04-22T19:53:42.038Z,3.40
2019-04-22T19:56:01.461Z,3.50
2019-04-22T19:58:37.431Z,4.00
2019-04-22T20:01:27.320Z,3.80
2019-04-22T20:06:53.460Z,4.10
2019-04-22T20:09:29.934Z,4.60
2019-04-22T20:11:57.485Z,4.03
2019-04-22T20:14:33.720Z,4.33
2019-04-22T20:16:54.787Z,4.60
2019-04-22T20:19:39.562Z,4.40
2019-04-22T20:22:06.183Z,4.70
2019-04-22T20:24:16.864Z,4.17
2019-04-22T20:27:03.040Z,4.77
2019-04-22T20:29:40.033Z,3.93
2019-04-22T20:32:07.368Z,4.90
2019-04-22T20:34:38.444Z,4.80
2019-04-22T20:37:10.428Z,3.97
2019-04-22T20:39:39.556Z,6.10
2019-04-22T20:42:16.460Z,5.03
2019-04-22T20:44:39.738Z,4.90
2019-04-22T20:47:08.990Z,5.03
2019-04-22T20:49:41.616Z,5.60
2019-04-22T20:52:24.072Z,5.33
2019-04-22T20:54:40.752Z,4.80
2019-04-22T20:57:09.747Z,5.13
2019-04-22T20:59:37.181Z,4.57
2019-04-22T21:02:06.613Z,5.03
2019-04-22T21:04:35.794Z,5.20
2019-04-22T21:07:09.567Z,5.53
2019-04-22T21:09:42.904Z,5.13
2019-04-22T21:12:12.472Z,4.50
2019-04-22T21:14:46.123Z,5.40
2019-04-22T21:17:35.081Z,5.33
2019-04-22T21:20:14.313Z,4.80
2019-04-22T21:22:38.627Z,5.17
2019-04-22T21:25:01.990Z,5.13
2019-04-22T21:27:45.614Z,4.80
2019-04-22T21:30:02.328Z,4.30
2019-04-22T21:32:38.826Z,4.93
2019-04-22T21:35:14.414Z,4.77
2019-04-22T21:37:43.245Z,4.90
2019-04-22T21:40:05.242Z,4.40
2019-04-22T21:42:48.939Z,4.57
2019-04-22T21:45:07.250Z,4.90
2019-04-22T21:47:51.517Z,4.83
2019-04-22T21:52:51.430Z,5.00
2019-04-22T21:55:16.091Z,4.87
2019-04-22T21:58:02.917Z,5.27
2019-04-22T22:00:37.155Z,6.00
2019-04-22T22:03:11.322Z,5.60
2019-04-22T22:05:26.536Z,5.23
2019-04-22T22:07:52.203Z,5.67
2019-04-22T22:10:34.318Z,6.10
2019-04-22T22:13:06.218Z,5.60
2019-04-22T22:15:37.017Z,5.93
2019-04-22T22:18:02.132Z,6.60
2019-04-22T22:20:45.324Z,5.57
2019-04-22T22:23:18.570Z,6.23
2019-04-22T22:25:33.645Z,6.10
2019-04-22T22:28:29.402Z,6.60
2019-04-22T22:30:51.391Z,6.93
2019-04-22T22:33:10.556Z,7.47
2019-04-22T22:35:42.381Z,6.73
2019-04-22T22:38:11.998Z,6.90
2019-04-22T22:40:27.676Z,7.53
2019-04-22T22:42:59.879Z,7.10
2019-04-22T22:45:37.489Z,7.50
2019-04-22T22:48:39.925Z,7.80
2019-04-22T22:50:50.925Z,8.00
2019-04-22T22:55:54.804Z,8.20
2019-04-22T22:58:27.497Z,9.10
2019-04-22T23:00:50.524Z,8.90
2019-04-22T23:03:46.017Z,8.50
2019-04-22T23:06:03.320Z,8.77
2019-04-22T23:08:31.130Z,8.57
2019-04-22T23:11:21.100Z,9.40
2019-04-22T23:13:37.160Z,10.10
2019-04-22T23:16:02.007Z,10.13
2019-04-22T23:18:16.211Z,10.57
2019-04-22T23:20:47.903Z,10.77
2019-04-22T23:26:07.431Z,10.10
2019-04-22T23:28:58.930Z,10.67
2019-04-22T23:31:31.904Z,11.17
2019-04-22T23:34:11.921Z,10.83
2019-04-22T23:37:02.097Z,11.30
2019-04-22T23:39:41.578Z,11.00
2019-04-22T23:42:12.514Z,11.63
2019-04-22T23:44:38.158Z,11.50
2019-04-22T23:47:12.169Z,11.00
2019-04-22T23:49:43.035Z,11.33
2019-04-22T23:52:22.703Z,11.53
2019-04-22T23:54:56.795Z,12.07
2019-04-22T23:57:29.798Z,12.60
2019-04-22T23:59:55.373Z,12.00
